Flight Track Log - Related Links

Times and Time Zones

All times are in EDT time to prevent confusion due to time zone crossing. See the BAW228 flight status page for this flight to view local times or setup timezone preferences in your user account.

Time Position Orientation Groundspeed Altitude Reporting Facility
EDT Latitude Longitude Course Direction KTS MPH feet Rate Location/Type
Sun 10:31:12 PM 39.1750 -76.7550 259° West 206 237 2,500  Level FlightAware
Sun 10:31:42 PM 39.1490 -76.7810 218° Southwest 238 274 3,800 2,640 Climbing FlightAware
Sun 10:32:02 PM 39.1200 -76.7760 172° South 267 307 4,700 2,400 Climbing FlightAware
Sun 10:32:17 PM 39.1030 -76.7590 142° Southeast 286 329 5,200 2,743 Climbing FlightAware
Sun 10:32:37 PM 39.0860 -76.7300 127° Southeast 293 337 6,300 2,421 Climbing FlightAware
Sun 10:34:11 PM 39.1018 -76.5594 83° East 315 362 9,800 2,018 Climbing FlightAware
Sun 10:34:27 PM 39.1067 -76.5290 78° East 334 384 10,000 894 Climbing FlightAware
Sun 10:34:58 PM 39.1164 -76.4655 79° East 364 419 10,500 1,377 Climbing FlightAware
Sun 10:35:28 PM 39.1269 -76.4005 78° East 377 434 11,400 1,770 Climbing FlightAware
Sun 10:35:59 PM 39.1372 -76.3287 79° East 388 447 12,300 1,935 Climbing FlightAware
Sun 10:36:30 PM 39.1471 -76.2598 79° East 395 455 13,400 2,073 Climbing FlightAware
Sun 10:36:54 PM 39.1552 -76.2036 79° East 403 464 14,200 2,073 Climbing FlightAware
Sun 10:37:25 PM 39.1630 -76.1295 82° East 409 471 15,300 2,066 Climbing FlightAware
Sun 10:37:55 PM 39.1713 -76.0565 82° East 415 478 16,300 2,000 Climbing FlightAware
Sun 10:38:25 PM 39.1797 -75.9826 82° East 421 484 17,300 1,800 Climbing FlightAware
Sun 10:38:45 PM 39.1856 -75.9299 82° East 429 494 17,800 1,600 Climbing FlightAware
Sun 10:38:55 PM 39.1910 -75.9052 74° East 432 497 18,100 1,875 Climbing FlightAware
Sun 10:39:01 PM 39.1950 -75.8933 67° East 434 499 18,300 1,846 Climbing FlightAware
Sun 10:39:08 PM 39.2021 -75.8771 61° Northeast 434 499 18,500 2,118 Climbing FlightAware
Sun 10:39:18 PM 39.2138 -75.8534 57° Northeast 435 501 18,900 2,000 Climbing FlightAware
Sun 10:39:29 PM 39.2286 -75.8323 48° Northeast 434 499 19,200 1,714 Climbing FlightAware
Sun 10:40:00 PM 39.2718 -75.7767 45° Northeast 444 511 20,100 1,672 Climbing FlightAware
Sun 10:40:30 PM 39.3162 -75.7202 45° Northeast 453 521 20,900 1,574 Climbing FlightAware
Sun 10:41:01 PM 39.3626 -75.6603 45° Northeast 460 529 21,700 1,377 Climbing FlightAware
Sun 10:41:31 PM 39.4086 -75.6010 45° Northeast 471 542 22,300 1,300 Climbing FlightAware
Sun 10:42:01 PM 39.4561 -75.5385 45° Northeast 479 551 23,000 1,377 Climbing FlightAware
Sun 10:42:32 PM 39.5038 -75.4764 45° Northeast 490 564 23,700 1,279 Climbing FlightAware
Sun 10:43:02 PM 39.5526 -75.4128 45° Northeast 502 578 24,300 1,300 Climbing FlightAware
Sun 10:43:32 PM 39.6029 -75.3478 45° Northeast 513 590 25,000 1,400 Climbing FlightAware
Sun 10:44:02 PM 39.6537 -75.2816 45° Northeast 522 601 25,700 1,400 Climbing FlightAware
Sun 10:44:32 PM 39.7035 -75.2091 48° Northeast 531 611 26,400 1,200 Climbing FlightAware
Sun 10:45:07 PM 39.7609 -75.1280 47° Northeast 542 624 27,000 545 Climbing FlightAware
Sun 10:45:38 PM 39.8132 -75.0522 48° Northeast 559 643 27,000  Level FlightAware
Sun 10:46:08 PM 39.8672 -74.9766 47° Northeast 571 657 27,000  Level FlightAware
Sun 10:46:39 PM 39.9218 -74.8972 48° Northeast 574 661 27,000 295 Level FlightAware
Sun 10:47:09 PM 39.9758 -74.8203 47° Northeast 577 664 27,300 1,400 Climbing FlightAware
Sun 10:47:39 PM 40.0300 -74.7430 48° Northeast 574 661 28,400 1,700 Climbing FlightAware
Sun 10:48:09 PM 40.0835 -74.6661 48° Northeast 573 659 29,000 885 Climbing FlightAware
Sun 10:48:40 PM 40.1385 -74.5866 48° Northeast 574 661 29,300 1,200 Climbing FlightAware
Sun 10:48:59 PM 40.1700 -74.5364 51° Northeast 572 658 30,000 2,222 Climbing FlightAware
Sun 10:49:07 PM 40.1833 -74.5143 52° Northeast 571 657 30,300 2,077 Climbing FlightAware
Sun 10:49:25 PM 40.2081 -74.4623 58° Northeast 565 650 30,900 2,077 Climbing FlightAware
Sun 10:49:33 PM 40.2184 -74.4388 60° Northeast 563 648 31,200 2,471 Climbing FlightAware
Sun 10:49:42 PM 40.2297 -74.4116 61° Northeast 559 643 31,600 2,483 Climbing FlightAware
Sun 10:50:02 PM 40.2504 -74.3474 67° East 549 632 32,400 1,647 Climbing FlightAware
Sun 10:50:33 PM 40.2754 -74.2540 71° East 545 627 33,000 590 Climbing FlightAware
Sun 10:51:03 PM 40.3006 -74.1606 70° East 546 628 33,000  Level FlightAware
Sun 10:51:34 PM 40.3258 -74.0635 71° East 548 631 33,000  Level FlightAware
Sun 10:52:04 PM 40.3500 -73.9695 71° East 546 628 33,000  Level FlightAware
Sun 10:52:35 PM 40.3747 -73.8723 72° East 543 625 33,000  Level FlightAware
Sun 10:53:06 PM 40.3990 -73.7758 72° East 542 624 33,000  Level FlightAware
Sun 10:53:36 PM 40.4233 -73.6826 71° East 540 621 33,000  Level FlightAware
Sun 10:54:09 PM 40.4493 -73.5800 72° East 539 620 33,000  Level FlightAware
Sun 10:54:39 PM 40.4733 -73.4870 71° East 541 623 33,000  Level FlightAware
Sun 10:55:12 PM 40.4995 -73.3810 72° East 541 623 33,000  Level FlightAware
Sun 10:55:45 PM 40.5248 -73.2812 72° East 542 624 33,000  Level FlightAware
Sun 10:56:15 PM 40.5484 -73.1871 72° East 544 626 33,000  Level FlightAware
Sun 10:56:31 PM 40.5612 -73.1372 71° East 545 627 33,000  Level FlightAware
Sun 10:56:45 PM 40.5760 -73.0915 67° East 549 632 33,000  Level FlightAware
Sun 10:56:53 PM 40.5852 -73.0706 60° Northeast 551 634 33,000  Level FlightAware
Sun 10:57:06 PM 40.6020 -73.0337 59° Northeast 552 635 33,000  Level FlightAware
Sun 10:57:20 PM 40.6237 -72.9956 53° Northeast 554 638 33,000  Level FlightAware
Sun 10:57:29 PM 40.6388 -72.9728 49° Northeast 554 638 33,000  Level FlightAware
Sun 10:57:38 PM 40.6550 -72.9512 45° Northeast 554 638 33,000  Level FlightAware
Sun 10:58:08 PM 40.7135 -72.8838 41° Northeast 554 638 33,000  Level FlightAware
Sun 10:58:40 PM 40.7751 -72.8101 42° Northeast 554 638 33,000  Level FlightAware
Sun 10:59:11 PM 40.8343 -72.7430 41° Northeast 554 638 33,000  Level FlightAware
Sun 10:59:42 PM 40.8934 -72.6739 41° Northeast 555 639 33,000  Level FlightAware
Sun 11:00:12 PM 40.9521 -72.6064 41° Northeast 556 640 33,000  Level FlightAware
Sun 11:00:43 PM 41.0106 -72.5366 42° Northeast 557 641 33,000  Level FlightAware
Sun 11:01:13 PM 41.0688 -72.4688 41° Northeast 557 641 33,000  Level FlightAware
Sun 11:01:44 PM 41.1299 -72.3986 41° Northeast 557 641 33,000  Level FlightAware
Sun 11:02:16 PM 41.1915 -72.3259 42° Northeast 557 641 33,000  Level FlightAware
Sun 11:03:02 PM 41.2780 -72.2230 42° Northeast 559 643 33,000  Level FlightAware
Sun 11:03:42 PM 41.3470 -72.1410 42° Northeast 560 644 33,000  Level FlightAware
Sun 11:04:27 PM 41.4360 -72.0350 42° Northeast 561 646 33,000  Level FlightAware
Sun 11:05:07 PM 41.5140 -71.9430 41° Northeast 563 648 33,000  Level FlightAware
Sun 11:05:52 PM 41.6010 -71.8380 42° Northeast 565 650 33,000  Level FlightAware
Sun 11:06:32 PM 41.6800 -71.7450 41° Northeast 565 650 33,000  Level FlightAware
Sun 11:07:12 PM 41.7530 -71.6560 42° Northeast 566 651 33,000  Level FlightAware
Sun 11:07:57 PM 41.8450 -71.5450 42° Northeast 567 652 33,000  Level FlightAware
Sun 11:08:37 PM 41.9210 -71.4540 42° Northeast 567 652 33,000  Level FlightAware
Sun 11:09:22 PM 42.0110 -71.3450 42° Northeast 567 652 33,000  Level FlightAware
Sun 11:10:02 PM 42.0920 -71.2450 42° Northeast 566 651 33,000  Level FlightAware
Sun 11:10:47 PM 42.1730 -71.1440 43° Northeast 562 647 33,000  Level FlightAware
Sun 11:11:22 PM 42.2340 -71.0660 43° Northeast 567 652 33,000  Level FlightAware
Sun 11:12:12 PM 42.3370 -70.9360 43° Northeast 566 651 33,000  Level FlightAware
Sun 11:12:52 PM 42.4180 -70.8360 42° Northeast 565 650 33,000  Level FlightAware
Sun 11:13:37 PM 42.5060 -70.7250 43° Northeast 563 648 33,000  Level FlightAware
Sun 11:14:17 PM 42.5820 -70.6290 43° Northeast 561 646 33,000  Level FlightAware
Sun 11:14:57 PM 42.6570 -70.5330 43° Northeast 559 643 33,000  Level FlightAware
Sun 11:15:42 PM 42.7400 -70.4300 42° Northeast 558 642 33,000  Level FlightAware
Sun 11:16:22 PM 42.8150 -70.3340 43° Northeast 556 640 33,000  Level FlightAware
Sun 11:17:02 PM 42.8890 -70.2370 44° Northeast 555 639 33,000  Level FlightAware
Sun 11:17:47 PM 42.9760 -70.1240 44° Northeast 554 638 33,000  Level FlightAware
Sun 11:18:27 PM 43.0490 -70.0300 43° Northeast 554 638 33,000  Level FlightAware
Sun 11:19:12 PM 43.1310 -69.9200 44° Northeast 554 638 33,000  Level FlightAware
Sun 11:19:52 PM 43.2060 -69.8230 43° Northeast 553 636 33,000  Level FlightAware
Sun 11:20:27 PM 43.2710 -69.7380 44° Northeast 553 636 33,000  Level FlightAware
Sun 11:21:17 PM 43.3580 -69.6210 44° Northeast 548 631 33,000  Level FlightAware
Sun 11:21:57 PM 43.4340 -69.5210 44° Northeast 548 631 33,000  Level FlightAware
Sun 11:22:42 PM 43.5170 -69.4100 44° Northeast 548 631 33,000  Level FlightAware
Sun 11:23:22 PM 43.5870 -69.3170 44° Northeast 549 632 33,000  Level FlightAware
Sun 11:24:02 PM 43.6630 -69.2150 44° Northeast 550 633 33,000  Level FlightAware
Sun 11:24:47 PM 43.7430 -69.1060 45° Northeast 550 633 33,000  Level FlightAware
Sun 11:25:27 PM 43.8180 -69.0040 44° Northeast 550 633 33,000  Level FlightAware
Sun 11:26:12 PM 43.8940 -68.9040 43° Northeast 550 633 33,000  Level FlightAware
Sun 11:26:52 PM 43.9720 -68.7950 45° Northeast 556 640 33,000  Level FlightAware
Sun 11:27:47 PM 44.0810 -68.6470 44° Northeast 556 640 33,000  Level FlightAware
Sun 11:28:32 PM 44.1590 -68.5390 45° Northeast 557 641 33,000  Level FlightAware
Sun 11:29:12 PM 44.2350 -68.4350 44° Northeast 555 639 33,000  Level FlightAware
Sun 11:29:52 PM 44.3020 -68.3430 44° Northeast 544 626 33,000  Level FlightAware
Sun 11:30:37 PM 44.3890 -68.2230 45° Northeast 535 616 33,000  Level FlightAware
Sun 11:31:17 PM 44.4590 -68.1250 45° Northeast 530 610 33,000  Level FlightAware
Sun 11:32:02 PM 44.5350 -68.0170 45° Northeast 528 608 33,000  Level FlightAware
Sun 11:32:42 PM 44.6030 -67.9230 45° Northeast 526 605 33,000  Level FlightAware
Sun 11:33:27 PM 44.6820 -67.8110 45° Northeast 526 605 33,000  Level FlightAware
Sun 11:34:07 PM 44.7480 -67.7170 45° Northeast 526 605 33,000  Level FlightAware
Sun 11:34:42 PM 44.8090 -67.6320 45° Northeast 528 608 33,000  Level FlightAware
Sun 11:35:32 PM 44.8940 -67.5110 45° Northeast 533 613 33,000  Level FlightAware
Sun 11:36:12 PM 44.9650 -67.4090 45° Northeast 531 611 33,000  Level FlightAware
Sun 11:36:52 PM 45.0360 -67.3070 45° Northeast 534 615 33,000  Level FlightAware
Sun 11:37:52 PM 45.1330 -67.1650 46° Northeast 534 615 33,000  Level FlightAware
Sun 11:39:02 PM 45.2550 -66.9880 46° Northeast 534 615 33,000  Level FlightAware
Sun 11:40:12 PM 45.3770 -66.8130 45° Northeast 534 615 33,000  Level FlightAware
Sun 11:41:22 PM 45.4980 -66.6350 46° Northeast 534 615 33,000  Level FlightAware
Sun 11:42:32 PM 45.6190 -66.4550 46° Northeast 541 623 33,000  Level FlightAware
Sun 11:43:02 PM 45.6720 -66.3750 47° Northeast 537 618 33,000  Level FlightAware
Sun 11:43:57 PM 45.7680 -66.2310 46° Northeast 547 629 33,000  Level FlightAware
Sun 11:45:02 PM 45.8820 -66.0590 46° Northeast 546 628 33,000  Level FlightAware
Sun 11:45:47 PM 45.9620 -65.9400 46° Northeast 549 632 33,000  Level FlightAware
Sun 11:46:27 PM 46.0330 -65.8300 47° Northeast 549 632 33,000  Level FlightAware
Sun 11:47:02 PM 46.0950 -65.7360 46° Northeast 554 638 33,000  Level FlightAware
Sun 11:47:42 PM 46.1680 -65.6230 47° Northeast 553 636 33,000  Level FlightAware
Sun 11:48:32 PM 46.2500 -65.5020 46° Northeast 554 638 33,000  Level FlightAware
Sun 11:49:12 PM 46.3110 -65.4110 46° Northeast 554 638 33,000  Level FlightAware
Sun 11:49:52 PM 46.3710 -65.3200 46° Northeast 554 638 33,000  Level FlightAware
Sun 11:50:42 PM 46.4470 -65.2070 46° Northeast 554 638 33,000  Level FlightAware
Sun 11:51:22 PM 46.5070 -65.1160 46° Northeast 554 638 33,000  Level FlightAware
Sun 11:52:02 PM 46.5680 -65.0250 46° Northeast 554 638 33,000  Level FlightAware
Sun 11:52:42 PM 46.6280 -64.9330 46° Northeast 554 638 33,000  Level FlightAware
Sun 11:53:22 PM 46.6890 -64.8420 46° Northeast 554 638 33,000  Level FlightAware
Sun 11:54:12 PM 46.7650 -64.7280 46° Northeast 554 638 33,000  Level FlightAware
Sun 11:54:52 PM 46.8250 -64.6360 46° Northeast 554 638 33,000  Level FlightAware
Sun 11:55:32 PM 46.8860 -64.5440 46° Northeast 554 638 33,000  Level FlightAware
Sun 11:56:12 PM 46.9460 -64.4530 46° Northeast 554 638 33,000  Level FlightAware
Sun 11:56:52 PM 47.0070 -64.3610 46° Northeast 554 638 33,000  Level FlightAware
Sun 11:57:42 PM 47.0820 -64.2460 46° Northeast 554 638 33,000  Level FlightAware
Sun 11:58:08 PM 47.2167 -63.9333 46° Northeast 530 610 33,000  Level Moncton Center
Sun 11:59:08 PM 47.3167 -63.7833 45° Northeast 530 610 33,000  Level Moncton Center
Mon 12:00:08 AM 47.4167 -63.6000 51° Northeast 540 621 33,000  Level Moncton Center
Mon 12:01:08 AM 47.5167 -63.4500 45° Northeast 540 621 33,000  Level Moncton Center
Mon 12:02:08 AM 47.6167 -63.2833 48° Northeast 540 621 33,000  Level Moncton Center
Mon 12:03:08 AM 47.7167 -63.1000 51° Northeast 540 621 33,000  Level Moncton Center
Mon 12:04:08 AM 47.8000 -62.9500 50° Northeast 530 610 33,000  Level Moncton Center
Mon 12:05:08 AM 47.9000 -62.7667 51° Northeast 530 610 33,000  Level Moncton Center
Mon 12:06:08 AM 48.0000 -62.6167 45° Northeast 530 610 33,000  Level Moncton Center
Mon 12:06:34 AM 48.0333 -62.5333 59° Northeast 530 610 33,000  Level Gander Center
Mon 12:08:08 AM 48.2000 -62.2833 45° Northeast 530 610 33,000  Level Moncton Center
Mon 12:09:08 AM 48.3000 -62.1000 51° Northeast 530 610 33,000  Level Moncton Center
Mon 12:10:08 AM 48.4000 -61.9333 48° Northeast 530 610 33,000  Level Moncton Center
Mon 12:11:08 AM 48.4667 -61.7667 59° Northeast 520 598 33,000  Level Moncton Center
Mon 12:12:09 AM 48.5833 -61.5833 46° Northeast 530 610 33,000  Level Moncton Center
Mon 12:13:08 AM 48.6667 -61.4333 50° Northeast 520 598 33,000  Level Moncton Center
Mon 12:13:34 AM 48.7167 -61.3500 48° Northeast 530 610 33,000  Level Gander Center
Mon 12:14:34 AM 48.8167 -61.1833 48° Northeast 530 610 33,000  Level Gander Center
Mon 12:15:08 AM 48.8500 -61.0833 63° Northeast 520 598 33,000  Level Moncton Center
Mon 12:16:08 AM 48.9500 -60.9333 45° Northeast 520 598 33,000  Level Moncton Center
Mon 12:16:34 AM 49.0000 -60.8500 48° Northeast 530 610 33,000  Level Gander Center
Mon 12:17:34 AM 49.0833 -60.6667 55° Northeast 530 610 33,000  Level Gander Center
Mon 12:18:34 AM 49.1833 -60.4833 50° Northeast 530 610 33,000  Level Gander Center
Mon 12:19:34 AM 49.2833 -60.3333 44° Northeast 530 610 33,000  Level Gander Center
Mon 12:20:08 AM 49.3333 -60.2000 60° Northeast 530 610 33,000  Level Moncton Center
Mon 12:21:08 AM 49.4333 -60.0500 44° Northeast 530 610 33,000  Level Moncton Center
Mon 12:21:34 AM 49.4667 -59.9667 58° Northeast 530 610 33,000  Level Gander Center
Mon 12:22:34 AM 49.5500 -59.7833 55° Northeast 530 610 33,000  Level Gander Center
Mon 12:23:34 AM 49.6500 -59.6000 50° Northeast 530 610 33,000  Level Gander Center
Mon 12:24:08 AM 49.7000 -59.5000 52° Northeast 530 610 33,000  Level Moncton Center
Mon 12:25:08 AM 49.7833 -59.3333 52° Northeast 530 610 33,000  Level Moncton Center
Mon 12:30:17 AM 50.2610 -58.4340 52° Northeast 527 606 33,000  Level FlightAware
Mon 12:30:57 AM 50.3170 -58.3010 57° Northeast 526 605 33,000  Level FlightAware
Mon 12:31:42 AM 50.3710 -58.1750 56° Northeast 526 605 33,000 667 Level FlightAware
Mon 12:32:27 AM 50.4360 -58.0210 56° Northeast 526 605 34,000 750 Climbing FlightAware
Mon 12:33:02 AM 50.4830 -57.9070 57° Northeast 523 602 34,000  Level FlightAware
Mon 12:33:47 AM 50.5360 -57.7840 56° Northeast 523 602 34,000  Level FlightAware
Mon 12:34:27 AM 50.5820 -57.6760 56° Northeast 523 602 34,000  Level FlightAware
Mon 12:35:17 AM 50.6400 -57.5420 56° Northeast 523 602 34,000  Level FlightAware
Mon 12:35:57 AM 50.6860 -57.4340 56° Northeast 523 602 34,000  Level FlightAware
Mon 12:36:37 AM 50.7320 -57.3270 56° Northeast 523 602 34,000  Level FlightAware
Mon 12:37:17 AM 50.7780 -57.2190 56° Northeast 523 602 34,000  Level FlightAware
Mon 12:37:57 AM 50.8240 -57.1110 56° Northeast 523 602 34,000  Level FlightAware
Mon 12:38:37 AM 50.8700 -57.0030 56° Northeast 523 602 34,000  Level FlightAware
Mon 12:39:27 AM 50.9270 -56.8680 56° Northeast 523 602 34,000  Level FlightAware
Mon 12:40:07 AM 50.9730 -56.7590 56° Northeast 523 602 34,000  Level FlightAware
Mon 12:40:47 AM 51.0190 -56.6510 56° Northeast 523 602 34,000  Level FlightAware
Mon 12:41:27 AM 51.0650 -56.5430 56° Northeast 523 602 34,000  Level FlightAware
Mon 12:42:17 AM 51.1230 -56.4070 56° Northeast 523 602 34,000  Level FlightAware
Mon 12:42:57 AM 51.1690 -56.2980 56° Northeast 523 602 34,000  Level FlightAware
Mon 12:43:34 AM 51.3000 -55.8167 56° Northeast 520 598 34,000  Level Gander Center
Mon 12:44:34 AM 51.3667 -55.6333 60° Northeast 530 610 34,000  Level Gander Center
Mon 12:45:34 AM 51.4500 -55.4333 56° Northeast 530 610 34,000  Level Gander Center
Mon 12:46:34 AM 51.5167 -55.2333 62° Northeast 530 610 34,000  Level Gander Center
Mon 12:47:34 AM 51.5833 -55.0000 65° Northeast 530 610 34,000  Level Gander Center
Mon 12:48:34 AM 51.6667 -54.8333 51° Northeast 540 621 34,000  Level Gander Center
Mon 12:49:34 AM 51.7500 -54.6000 60° Northeast 530 610 34,000  Level Gander Center
Mon 12:50:34 AM 51.8333 -54.4000 56° Northeast 530 610 34,000  Level Gander Center
Mon 12:51:34 AM 51.9000 -54.2000 62° Northeast 530 610 34,000  Level Gander Center
Mon 12:52:34 AM 51.9667 -54.0000 62° Northeast 530 610 34,000  Level Gander Center
Mon 12:53:34 AM 52.0500 -53.7667 60° Northeast 530 610 34,000  Level Gander Center
Mon 12:54:34 AM 52.1333 -53.5833 53° Northeast 530 610 34,000  Level Gander Center
Mon 12:55:34 AM 52.1833 -53.3833 68° East 520 598 34,000  Level Gander Center
Mon 12:56:34 AM 52.2500 -53.1667 63° Northeast 520 598 34,000  Level Gander Center
Mon 12:57:34 AM 52.3000 -52.9500 69° East 530 610 34,000  Level Gander Center
Mon 12:58:34 AM 52.3667 -52.7167 65° Northeast 520 598 34,000  Level Gander Center
Mon 12:59:34 AM 52.4000 -52.4667 78° East 520 598 34,000  Level Gander Center
Mon 01:00:34 AM 52.4667 -52.2667 61° Northeast 520 598 34,000  Level Gander Center
Mon 01:01:34 AM 52.5167 -52.0667 68° East 530 610 34,000  Level Gander Center
Mon 01:03:34 AM 52.6167 -51.6167 70° East 530 610 34,000  Level Gander Center
Mon 01:04:34 AM 52.6667 -51.3833 70° East 530 610 34,000  Level Gander Center
Mon 01:05:34 AM 52.7000 -51.1667 76° East 530 610 34,000  Level Gander Center
Mon 01:07:00 AM 52.7854 -50.8407 66° East  Level FlightAware
Mon 01:13:00 AM 53.0000 -50.0000 76° East 516 594 34,000  Level ETMS Enhanced
Mon 01:14:00 AM 53.1027 -49.2650 77° East  Level FlightAware
Mon 01:15:00 AM 53.1342 -49.0320 77° East  Level FlightAware
Mon 01:16:00 AM 53.1652 -48.7986 77° East  Level FlightAware
Mon 01:17:00 AM 53.1958 -48.5649 78° East  Level FlightAware
Mon 01:18:00 AM 53.2260 -48.3309 78° East  Level FlightAware
Mon 01:19:00 AM 53.2840 -47.8997 78° East 516 594 34,000  Level FlightAware
Mon 01:20:00 AM 53.3133 -47.6647 78° East 516 594 34,000  Level FlightAware
Mon 01:21:00 AM 53.3420 -47.4293 79° East 516 594 34,000  Level FlightAware
Mon 01:22:00 AM 53.3704 -47.1937 79° East 516 594 34,000  Level FlightAware
Mon 01:23:00 AM 53.3983 -46.9577 79° East 516 594 34,000  Level FlightAware
Mon 01:24:00 AM 53.4257 -46.7214 79° East 516 594 34,000  Level FlightAware
Mon 01:25:00 AM 53.4526 -46.4848 79° East 516 594 34,000  Level FlightAware
Mon 01:26:00 AM 53.4791 -46.2479 79° East 516 594 34,000  Level FlightAware
Mon 01:27:00 AM 53.5051 -46.0107 80° East 516 594 34,000  Level FlightAware
Mon 01:28:00 AM 53.5306 -45.7732 80° East 516 594 34,000  Level FlightAware
Mon 01:29:00 AM 53.5557 -45.5355 80° East 516 594 34,000  Level FlightAware
Mon 01:30:00 AM 53.5803 -45.2974 80° East 516 594 34,000  Level FlightAware
Mon 01:31:00 AM 53.6044 -45.0591 80° East 516 594 34,000  Level FlightAware
Mon 01:32:00 AM 53.6280 -44.8205 81° East 516 594 34,000  Level FlightAware
Mon 01:33:00 AM 53.6512 -44.5817 81° East 516 594 34,000  Level FlightAware
Mon 01:34:00 AM 53.6739 -44.3426 81° East 516 594 34,000  Level FlightAware
Mon 01:35:00 AM 53.6961 -44.1032 81° East 516 594 34,000  Level FlightAware
Mon 01:36:00 AM 53.7178 -43.8636 81° East 516 594 34,000  Level FlightAware
Mon 01:37:00 AM 53.7391 -43.6237 82° East 516 594 34,000  Level FlightAware
Mon 01:38:00 AM 53.7599 -43.3837 82° East 516 594 34,000  Level FlightAware
Mon 01:39:00 AM 53.7802 -43.1433 82° East 516 594 34,000  Level FlightAware
Mon 01:40:00 AM 53.8000 -42.9028 82° East 516 594 34,000  Level FlightAware
Mon 01:41:00 AM 53.8193 -42.6620 82° East 516 594 34,000  Level FlightAware
Mon 01:42:00 AM 53.8382 -42.4210 83° East 516 594 34,000  Level FlightAware
Mon 01:43:00 AM 53.8565 -42.1797 83° East 516 594 34,000  Level FlightAware
Mon 01:44:00 AM 53.8744 -41.9383 83° East 516 594 34,000  Level FlightAware
Mon 01:45:00 AM 53.8918 -41.6967 83° East 516 594 34,000  Level FlightAware
Mon 01:46:00 AM 53.9087 -41.4549 83° East 516 594 34,000  Level FlightAware
Mon 01:47:00 AM 53.9252 -41.2128 84° East 516 594 34,000  Level FlightAware
Mon 01:48:00 AM 53.9411 -40.9706 84° East 516 594 34,000  Level FlightAware
Mon 01:49:00 AM 53.9566 -40.7282 84° East 516 594 34,000  Level FlightAware
Mon 01:50:00 AM 53.9715 -40.4856 84° East 516 594 34,000  Level FlightAware
Mon 01:51:00 AM 53.9860 -40.2429 84° East 516 594 34,000  Level FlightAware
Mon 01:52:00 AM 54.0000 -40.0002 84° East  Level FlightAware
Mon 01:53:00 AM 54.0099 -39.7569 86° East  Level FlightAware
Mon 01:54:00 AM 54.0098 -39.7571 86° East  Level FlightAware
Mon 01:55:00 AM 54.0190 -39.5137 86° East  Level FlightAware
Mon 01:55:00 AM 54.0000 -40.0000 86° East 528 608 34,000  Level ETMS Enhanced
Mon 01:56:00 AM 54.0278 -39.2701 86° East  Level FlightAware
Mon 01:57:00 AM 54.0361 -39.0265 87° East  Level FlightAware
Mon 01:58:00 AM 54.0439 -38.7827 87° East  Level FlightAware
Mon 01:59:00 AM 54.0513 -38.5389 87° East  Level FlightAware
Mon 02:00:00 AM 54.0581 -38.2949 87° East  Level FlightAware
Mon 02:01:00 AM 54.0724 -37.7532 88° East 528 608 34,000  Level FlightAware
Mon 02:02:00 AM 54.0778 -37.5031 88° East 528 608 34,000  Level FlightAware
Mon 02:03:00 AM 54.0828 -37.2530 88° East 528 608 34,000  Level FlightAware
Mon 02:04:00 AM 54.0872 -37.0028 88° East 528 608 34,000  Level FlightAware
Mon 02:05:00 AM 54.0911 -36.7526 89° East 528 608 34,000  Level FlightAware
Mon 02:06:00 AM 54.0945 -36.5023 89° East 528 608 34,000  Level FlightAware
Mon 02:07:00 AM 54.0973 -36.2519 89° East 528 608 34,000  Level FlightAware
Mon 02:08:00 AM 54.0997 -36.0016 89° East 528 608 34,000  Level FlightAware
Mon 02:09:00 AM 54.1015 -35.7512 89° East 528 608 34,000  Level FlightAware
Mon 02:10:00 AM 54.1028 -35.5008 90° East 528 608 34,000  Level FlightAware
Mon 02:11:00 AM 54.1035 -35.2504 90° East 528 608 34,000  Level FlightAware
Mon 02:12:00 AM 54.1038 -35.0000 90° East 528 608 34,000  Level FlightAware
Mon 02:13:00 AM 54.1035 -34.7496 90° East 528 608 34,000  Level FlightAware
Mon 02:14:00 AM 54.1028 -34.4992 90° East 528 608 34,000  Level FlightAware
Mon 02:15:00 AM 54.1015 -34.2488 91° East 528 608 34,000  Level FlightAware
Mon 02:16:00 AM 54.0997 -33.9984 91° East 528 608 34,000  Level FlightAware
Mon 02:17:00 AM 54.0973 -33.7481 91° East 528 608 34,000  Level FlightAware
Mon 02:18:00 AM 54.0945 -33.4977 91° East 528 608 34,000  Level FlightAware
Mon 02:19:00 AM 54.0911 -33.2474 91° East 528 608 34,000  Level FlightAware
Mon 02:20:00 AM 54.0872 -32.9972 92° East 528 608 34,000  Level FlightAware
Mon 02:21:00 AM 54.0828 -32.7470 92° East 528 608 34,000  Level FlightAware
Mon 02:22:00 AM 54.0778 -32.4969 92° East 528 608 34,000  Level FlightAware
Mon 02:23:00 AM 54.0724 -32.2468 92° East 528 608 34,000  Level FlightAware
Mon 02:24:00 AM 54.0664 -31.9968 92° East 528 608 34,000  Level FlightAware
Mon 02:25:00 AM 54.0599 -31.7469 93° East 528 608 34,000  Level FlightAware
Mon 02:26:00 AM 54.0529 -31.4970 93° East 528 608 34,000  Level FlightAware
Mon 02:27:00 AM 54.0454 -31.2473 93° East 528 608 34,000  Level FlightAware
Mon 02:28:00 AM 54.0373 -30.9976 93° East 528 608 34,000  Level FlightAware
Mon 02:29:00 AM 54.0288 -30.7480 93° East 528 608 34,000  Level FlightAware
Mon 02:30:00 AM 54.0197 -30.4986 94° East 528 608 34,000  Level FlightAware
Mon 02:31:00 AM 54.0101 -30.2492 94° East 528 608 34,000  Level FlightAware
Mon 02:32:00 AM 54.0003 -30.0059 94° East  Level FlightAware
Mon 02:33:00 AM 53.9897 -29.7627 94° East  Level FlightAware
Mon 02:34:00 AM 53.9865 -29.7691 96° East  Level FlightAware
Mon 02:34:00 AM 54.0000 -30.0000 95° East 529 609 34,000  Level ETMS Enhanced
Mon 02:35:00 AM 53.9719 -29.5266 96° East  Level FlightAware
Mon 02:36:00 AM 53.9568 -29.2843 96° East  Level FlightAware
Mon 02:37:00 AM 53.9413 -29.0422 96° East  Level FlightAware
Mon 02:38:00 AM 53.9252 -28.8002 96° East  Level FlightAware
Mon 02:39:00 AM 53.9086 -28.5585 97° East  Level FlightAware
Mon 02:40:00 AM 53.8889 -28.2620 97° East 529 609 34,000  Level FlightAware
Mon 02:41:00 AM 53.8710 -28.0145 97° East 529 609 34,000  Level FlightAware
Mon 02:42:00 AM 53.8526 -27.7673 97° East 529 609 34,000  Level FlightAware
Mon 02:43:00 AM 53.8336 -27.5202 98° East 529 609 34,000  Level FlightAware
Mon 02:44:00 AM 53.8142 -27.2734 98° East 529 609 34,000  Level FlightAware
Mon 02:45:00 AM 53.7942 -27.0268 98° East 529 609 34,000  Level FlightAware
Mon 02:46:00 AM 53.7738 -26.7805 98° East 529 609 34,000  Level FlightAware
Mon 02:47:00 AM 53.7528 -26.5343 98° East 529 609 34,000  Level FlightAware
Mon 02:48:00 AM 53.7314 -26.2885 98° East 529 609 34,000  Level FlightAware
Mon 02:49:00 AM 53.7094 -26.0429 99° East 529 609 34,000  Level FlightAware
Mon 02:50:00 AM 53.6869 -25.7975 99° East 529 609 34,000  Level FlightAware
Mon 02:51:00 AM 53.6640 -25.5524 99° East 529 609 34,000  Level FlightAware
Mon 02:52:00 AM 53.6405 -25.3076 99° East 529 609 34,000  Level FlightAware
Mon 02:53:00 AM 53.6165 -25.0630 99° East 529 609 34,000  Level FlightAware
Mon 02:54:00 AM 53.5921 -24.8188 100° East 529 609 34,000  Level FlightAware
Mon 02:55:00 AM 53.5671 -24.5748 100° East 529 609 34,000  Level FlightAware
Mon 02:56:00 AM 53.5417 -24.3311 100° East 529 609 34,000  Level FlightAware
Mon 02:57:00 AM 53.5157 -24.0877 100° East 529 609 34,000  Level FlightAware
Mon 02:58:00 AM 53.4893 -23.8446 100° East 529 609 34,000  Level FlightAware
Mon 02:59:00 AM 53.4623 -23.6019 101° East 529 609 34,000  Level FlightAware
Mon 03:00:00 AM 53.4349 -23.3594 101° East 529 609 34,000  Level FlightAware
Mon 03:01:00 AM 53.4070 -23.1172 101° East 529 609 34,000  Level FlightAware
Mon 03:02:00 AM 53.3786 -22.8754 101° East 529 609 34,000  Level FlightAware
Mon 03:03:00 AM 53.3497 -22.6339 101° East 529 609 34,000  Level FlightAware
Mon 03:04:00 AM 53.3203 -22.3927 102° East 529 609 34,000  Level FlightAware
Mon 03:05:00 AM 53.2905 -22.1518 102° East 529 609 34,000  Level FlightAware
Mon 03:06:00 AM 53.2601 -21.9113 102° East 529 609 34,000  Level FlightAware
Mon 03:07:00 AM 53.2293 -21.6712 102° East 529 609 34,000  Level FlightAware
Mon 03:08:00 AM 53.1979 -21.4313 102° East 529 609 34,000  Level FlightAware
Mon 03:09:00 AM 53.1661 -21.1919 103° East 529 609 34,000  Level FlightAware
Mon 03:10:00 AM 53.1339 -20.9528 103° East 529 609 34,000  Level FlightAware
Mon 03:11:00 AM 53.1011 -20.7140 103° East 529 609 34,000  Level FlightAware
Mon 03:12:00 AM 53.0679 -20.4756 103° East 529 609 34,000  Level FlightAware
Mon 03:13:00 AM 53.0342 -20.2376 103° East 529 609 34,000  Level FlightAware
Mon 03:14:00 AM 53.0009 -20.0059 103° East  Level FlightAware
Mon 03:15:00 AM 52.9672 -19.7745 104° East  Level FlightAware
Mon 03:16:00 AM 52.9993 -19.7739 90° East  Level FlightAware
Mon 03:17:00 AM 52.9980 -19.5357 90° East  Level FlightAware
Mon 03:18:00 AM 52.9963 -19.2976 91° East  Level FlightAware
Mon 03:19:00 AM 52.9941 -19.0594 91° East  Level FlightAware
Mon 03:20:00 AM 52.9914 -18.8213 91° East  Level FlightAware
Mon 03:21:00 AM 52.9883 -18.5832 91° East  Level FlightAware
Mon 03:22:00 AM 52.9847 -18.3452 91° East  Level FlightAware
Mon 03:23:00 AM 52.9806 -18.1072 92° East  Level FlightAware
Mon 03:24:00 AM 52.9760 -17.8692 92° East  Level FlightAware
Mon 03:25:00 AM 52.9710 -17.6313 92° East  Level FlightAware
Mon 03:26:00 AM 52.9655 -17.3935 92° East  Level FlightAware
Mon 03:27:00 AM 52.9595 -17.1557 92° East  Level FlightAware
Mon 03:28:00 AM 52.9530 -16.9180 92° East  Level FlightAware
Mon 03:29:00 AM 52.9460 -16.6804 93° East  Level FlightAware
Mon 03:30:00 AM 52.9386 -16.4428 93° East  Level FlightAware
Mon 03:31:00 AM 52.9307 -16.2054 93° East  Level FlightAware
Mon 03:32:00 AM 52.9224 -15.9680 93° East  Level FlightAware
Mon 03:33:00 AM 52.9135 -15.7307 93° East  Level FlightAware
Mon 03:34:00 AM 52.9042 -15.4935 94° East  Level FlightAware
Mon 03:35:00 AM 52.8945 -15.2564 94° East  Level FlightAware
Mon 03:36:00 AM 52.8842 -15.0195 94° East  Level FlightAware
Mon 03:37:00 AM 52.8746 -14.7825 94° East  Level FlightAware
Mon 03:38:00 AM 52.8647 -14.5456 94° East  Level FlightAware
Mon 03:39:00 AM 52.8543 -14.3088 94° East  Level FlightAware
Mon 03:40:00 AM 52.8434 -14.0721 94° East  Level FlightAware
Mon 03:41:00 AM 52.8321 -13.8356 94° East  Level FlightAware
Mon 03:42:00 AM 52.8203 -13.5991 95° East  Level FlightAware
Mon 03:43:00 AM 52.8080 -13.3628 95° East  Level FlightAware
Mon 03:43:12 AM 52.8770 -12.9120 95° East 549 632 34,000  Level FlightAware
Mon 03:43:52 AM 52.8640 -12.7450 97° East 548 631 34,000 -212 Level FlightAware
Mon 03:44:37 AM 52.8480 -12.5530 98° East 551 634 33,700 -424 Descending FlightAware
Mon 03:45:17 AM 52.8340 -12.3860 98° East 550 633 33,400 -494 Descending FlightAware
Mon 03:46:02 AM 52.8180 -12.2000 98° East 548 631 33,000 -282 Descending FlightAware
Mon 03:46:42 AM 52.8050 -12.0420 98° East 547 629 33,000  Level FlightAware
Mon 03:47:22 AM 52.7900 -11.8680 98° East 550 633 33,000  Level FlightAware
Mon 03:48:02 AM 52.7750 -11.7020 98° East 553 636 33,000  Level FlightAware
Mon 03:48:47 AM 52.7580 -11.5140 98° East 554 638 33,000  Level FlightAware
Mon 03:49:22 AM 52.7440 -11.3680 99° East 553 636 33,000  Level FlightAware
Mon 03:50:12 AM 52.7250 -11.1600 98° East 552 635 33,000  Level FlightAware
Mon 03:50:52 AM 52.7090 -10.9940 99° East 552 635 33,000  Level FlightAware
Mon 03:51:32 AM 52.6930 -10.8320 99° East 551 634 33,000  Level FlightAware
Mon 03:52:17 AM 52.6750 -10.6420 99° East 548 631 33,000  Level FlightAware
Mon 03:52:57 AM 52.6580 -10.4730 99° East 550 633 33,000  Level FlightAware
Mon 03:53:42 AM 52.6390 -10.2870 99° East 550 633 33,000  Level FlightAware
Mon 03:54:22 AM 52.6230 -10.1260 99° East 550 633 33,000  Level FlightAware
Mon 03:55:07 AM 52.6030 -9.9400 100° East 550 633 33,000  Level FlightAware
Mon 03:55:47 AM 52.5880 -9.7880 99° East 550 633 33,000  Level FlightAware
Mon 03:56:22 AM 52.5740 -9.6430 99° East 551 634 33,000  Level FlightAware
Mon 03:57:12 AM 52.5560 -9.4140 97° East 552 635 33,000  Level FlightAware
Mon 03:57:52 AM 52.5420 -9.2530 98° East 551 634 33,000  Level FlightAware
Mon 03:58:37 AM 52.5250 -9.0660 98° East 552 635 33,000 -1,452 Level FlightAware
Mon 03:58:54 AM 52.5153 -8.9785 98° East 466 536 31,500 -2,571 Descending FlightAware
Mon 03:59:12 AM 52.5091 -8.9038 98° East 466 536 31,500 3,913 Level FlightAware
Mon 03:59:17 AM 52.5100 -8.9170 98° East 551 634 33,000  Climbing FlightAware
Mon 03:59:36 AM 52.4988 -8.8047 98° East 466 536 31,500 -2,432 Descending FlightAware
Mon 03:59:54 AM 52.4908 -8.7303 100° East 466 536 31,500 4,286 Level FlightAware
Mon 03:59:57 AM 52.4910 -8.7400 100° East 554 638 33,000  Climbing FlightAware
Mon 04:00:12 AM 52.4824 -8.6560 100° East 466 536 31,500 -2,727 Descending FlightAware
Mon 04:00:30 AM 52.4742 -8.5820 100° East 468 539 31,500 3,000 Level FlightAware
Mon 04:00:42 AM 52.4700 -8.5510 100° East 550 633 33,000  Climbing FlightAware
Mon 04:01:00 AM 52.4598 -8.4590 100° East 464 534 31,500 -2,500 Descending FlightAware
Mon 04:01:18 AM 52.4511 -8.3852 101° East 466 536 31,500 4,091 Level FlightAware
Mon 04:01:22 AM 52.4510 -8.3910 101° East 550 633 33,000  Climbing FlightAware
Mon 04:01:42 AM 52.4390 -8.2859 101° East 470 541 31,500 -2,368 Descending FlightAware
Mon 04:02:00 AM 52.4302 -8.2123 101° East 472 543 31,500 3,600 Level FlightAware
Mon 04:02:07 AM 52.4290 -8.2030 101° East 550 633 33,000  Climbing FlightAware
Mon 04:02:24 AM 52.4181 -8.1140 101° East 472 543 31,500 -2,571 Descending FlightAware
Mon 04:02:42 AM 52.4093 -8.0404 101° East 472 543 31,500 3,913 Level FlightAware
Mon 04:02:47 AM 52.4090 -8.0390 101° East 548 631 33,000  Climbing FlightAware
Mon 04:03:06 AM 52.3973 -7.9426 101° East 460 529 31,500 -2,432 Descending FlightAware
Mon 04:03:24 AM 52.3883 -7.8693 101° East 462 532 31,500 3,462 Level FlightAware
Mon 04:03:32 AM 52.3860 -7.8570 101° East 547 629 33,000  Climbing FlightAware
Mon 04:03:48 AM 52.3763 -7.7717 101° East 464 534 31,500 -2,647 Descending FlightAware
Mon 04:04:06 AM 52.3673 -7.6986 101° East 464 534 31,500 3,750 Level FlightAware
Mon 04:04:12 AM 52.3670 -7.6980 101° East 548 631 33,000  Climbing FlightAware
Mon 04:04:30 AM 52.3551 -7.6013 101° East 466 536 31,500 -2,500 Descending FlightAware
Mon 04:04:48 AM 52.3460 -7.5282 102° East 466 536 31,500 4,091 Level FlightAware
Mon 04:04:52 AM 52.3460 -7.5350 102° East 549 632 33,000  Climbing FlightAware
Mon 04:05:12 AM 52.3334 -7.4309 102° East 468 539 31,500 -2,368 Descending FlightAware
Mon 04:05:30 AM 52.3240 -7.3580 102° East 466 536 31,500 3,600 Level FlightAware
Mon 04:05:37 AM 52.3220 -7.3500 102° East 549 632 33,000  Climbing FlightAware
Mon 04:05:54 AM 52.3111 -7.2610 102° East 466 536 31,500 -2,571 Descending FlightAware
Mon 04:06:12 AM 52.3014 -7.1882 102° East 464 534 31,500 3,913 Level FlightAware
Mon 04:06:17 AM 52.3010 -7.1920 102° East 548 631 33,000  Climbing FlightAware
Mon 04:06:36 AM 52.2883 -7.0907 102° East 462 532 31,500 -2,432 Descending FlightAware
Mon 04:06:54 AM 52.2785 -7.0181 102° East 462 532 31,500 3,462 Level FlightAware
Mon 04:07:02 AM 52.2760 -7.0020 102° East 549 632 33,000  Climbing FlightAware
Mon 04:07:18 AM 52.2656 -6.9212 102° East 462 532 31,500 -2,647 Descending FlightAware
Mon 04:07:36 AM 52.2557 -6.8486 103° East 462 532 31,500 3,750 Level FlightAware
Mon 04:07:42 AM 52.2540 -6.8450 103° East 548 631 33,000  Climbing FlightAware
Mon 04:08:00 AM 52.2423 -6.7518 103° East 464 534 31,500 -2,500 Descending FlightAware
Mon 04:08:18 AM 52.2323 -6.6793 103° East 464 534 31,500 4,091 Level FlightAware
Mon 04:08:22 AM 52.2320 -6.6800 103° East 548 631 33,000  Climbing FlightAware
Mon 04:08:42 AM 52.2189 -6.5828 103° East 464 534 31,500 -2,368 Descending FlightAware
Mon 04:09:00 AM 52.2088 -6.5105 103° East 466 536 31,500 4,500 Level FlightAware
Mon 04:09:02 AM 52.2090 -6.5150 103° East 548 631 33,000  Climbing FlightAware
Mon 04:09:18 AM 52.1988 -6.4381 103° East 464 534 31,500 -2,647 Descending FlightAware
Mon 04:09:36 AM 52.1888 -6.3658 103° East 462 532 31,500 3,103 Level FlightAware
Mon 04:09:47 AM 52.1840 -6.3380 103° East 547 629 33,000 -400 Climbing FlightAware
Mon 04:10:06 AM 52.1718 -6.2456 103° East 460 529 31,300 -3,405 Descending FlightAware
Mon 04:10:24 AM 52.1615 -6.1736 103° East 460 529 30,900 3,429 Descending FlightAware
Mon 04:10:27 AM 52.1630 -6.1860 103° East 546 628 32,500 -1,667 Climbing FlightAware
Mon 04:10:42 AM 52.1511 -6.1015 103° East 462 532 30,400 -4,364 Descending FlightAware
Mon 04:11:00 AM 52.1407 -6.0293 103° East 464 534 30,100 2,000 Descending FlightAware
Mon 04:11:12 AM 52.1350 -5.9890 103° East 550 633 31,400 -1,400 Climbing FlightAware
Mon 04:11:30 AM 52.1234 -5.9079 103° East 464 534 29,400 -3,167 Descending FlightAware
Mon 04:11:48 AM 52.1131 -5.8354 103° East 464 534 29,500 4,364 Climbing FlightAware
Mon 04:11:52 AM 52.1110 -5.8280 103° East 549 632 31,000  Climbing FlightAware
Mon 04:12:12 AM 52.0990 -5.7389 103° East 466 536 29,500 -2,368 Descending FlightAware
Mon 04:12:30 AM 52.0883 -5.6668 104° East 466 536 29,500 4,500 Level FlightAware
Mon 04:12:32 AM 52.0890 -5.6760 104° East 549 632 31,000  Climbing FlightAware
Mon 04:12:48 AM 52.0770 -5.5950 104° East 468 539 29,500 -2,647 Descending FlightAware
Mon 04:13:06 AM 52.0655 -5.5231 105° East 470 541 29,500 3,103 Level FlightAware
Mon 04:13:17 AM 52.0600 -5.4960 105° East 553 636 31,000  Climbing FlightAware
Mon 04:13:36 AM 52.0463 -5.4027 105° East 472 543 29,500 -2,432 Descending FlightAware
Mon 04:13:54 AM 52.0350 -5.3299 104° East 474 545 29,500 4,286 Level FlightAware
Mon 04:13:57 AM 52.0350 -5.3300 104° East 555 639 31,000  Climbing FlightAware
Mon 04:14:12 AM 52.0235 -5.2573 104° East 474 545 29,500 -2,727 Descending FlightAware
Mon 04:14:30 AM 52.0117 -5.1840 105° East 472 543 29,500 3,000 Level FlightAware
Mon 04:14:42 AM 52.0050 -5.1450 105° East 553 636 31,000  Climbing FlightAware
Mon 04:15:00 AM 51.9926 -5.0635 105° East 470 541 29,500  Descending FlightAware
Mon 04:15:22 AM 51.9800 -4.9850 105° East 554 638 31,000  Climbing FlightAware
Mon 04:15:42 AM 51.9656 -4.8950 105° East 474 545 29,500 -2,368 Descending FlightAware
Mon 04:16:00 AM 51.9541 -4.8228 105° East 474 545 29,500 3,600 Level FlightAware
Mon 04:16:07 AM 51.9510 -4.8080 105° East 553 636 31,000  Climbing FlightAware
Mon 04:16:24 AM 51.9387 -4.7266 105° East 474 545 29,500 -2,571 Descending FlightAware
Mon 04:16:42 AM 51.9272 -4.6544 104° East 474 545 29,500 3,913 Level FlightAware
Mon 04:16:47 AM 51.9260 -4.6480 104° East 553 636 31,000  Climbing FlightAware
Mon 04:17:06 AM 51.9115 -4.5584 104° East 474 545 29,500  Descending FlightAware
Mon 04:17:32 AM 51.8910 -4.4670 104° East 549 632 31,000  Climbing FlightAware
Mon 04:17:48 AM 51.8753 -4.3961 104° East 476 548 29,500  Descending FlightAware
Mon 04:18:12 AM 51.8570 -4.3120 104° East 548 631 31,000 1,406 Climbing FlightAware
Mon 04:18:52 AM 51.8230 -4.1580 110° East 546 628 31,000 -1,636 Level FlightAware
Mon 04:19:07 AM 51.8097 -4.0943 110° East 474 545 29,500  Descending FlightAware
Mon 04:19:37 AM 51.7870 -3.9930 110° East 544 626 31,000  Climbing FlightAware
Mon 04:20:01 AM 51.7647 -3.8868 110° East 472 543 29,500  Descending FlightAware
Mon 04:20:17 AM 51.7530 -3.8360 110° East 543 625 31,000 -167 Climbing FlightAware
Mon 04:20:37 AM 51.7344 -3.7496 110° East 472 543 29,400 -2,842 Descending FlightAware
Mon 04:20:55 AM 51.7190 -3.6811 110° East 476 548 29,200 4,200 Descending FlightAware
Mon 04:20:57 AM 51.7190 -3.6840 110° East 546 628 30,800 -500 Climbing FlightAware
Mon 04:21:19 AM 51.6981 -3.5895 110° East 478 550 29,000 -3,000 Descending FlightAware
Mon 04:21:37 AM 51.6822 -3.5207 110° East 476 548 28,800 3,652 Descending FlightAware
Mon 04:21:42 AM 51.6800 -3.5120 110° East 543 625 30,400 -250 Climbing FlightAware
Mon 04:22:01 AM 51.6613 -3.4295 110° East 468 539 28,700 -3,081 Descending FlightAware
Mon 04:22:19 AM 51.6460 -3.3628 110° East 468 539 28,500 4,000 Descending FlightAware
Mon 04:22:22 AM 51.6450 -3.3580 110° East 536 617 30,100 -667 Climbing FlightAware
Mon 04:22:37 AM 51.6305 -3.2954 110° East 470 541 28,300 -3,455 Descending FlightAware
Mon 04:22:55 AM 51.6146 -3.2272 111° Southeast 472 543 28,200 2,600 Descending FlightAware
Mon 04:23:07 AM 51.6060 -3.1930 111° Southeast 542 624 29,600 -800 Climbing FlightAware
Mon 04:23:25 AM 51.5884 -3.1140 111° Southeast 480 552 27,800 -3,333 Descending FlightAware
Mon 04:23:43 AM 51.5725 -3.0452 110° East 480 552 27,600 3,545 Descending FlightAware
Mon 04:23:47 AM 51.5720 -3.0420 110° East 542 624 29,100 -1,250 Climbing FlightAware
Mon 04:24:07 AM 51.5518 -2.9552 110° East 480 552 27,100 -3,789 Descending FlightAware
Mon 04:24:25 AM 51.5359 -2.8873 111° Southeast 480 552 26,700 2,400 Descending FlightAware
Mon 04:24:32 AM 51.5320 -2.8720 111° Southeast 540 621 28,100 3,000 Climbing FlightAware
Mon 04:24:43 AM 51.5204 -2.8236 111° Southeast 542 624 27,600 -2,591 Descending FlightAware
Mon 04:25:16 AM 51.4910 -2.7006 111° Southeast 539 620 26,200 -2,769 Descending FlightAware
Mon 04:25:35 AM 51.4737 -2.6295 111° Southeast 543 625 25,200 -3,176 Descending FlightAware
Mon 04:25:50 AM 51.4647 -2.5667 103° East 548 631 24,400 -6,000 Descending FlightAware
Mon 04:26:07 AM 51.4589 -2.4968 103° East 486 559 22,000 -2,000 Descending FlightAware
Mon 04:26:26 AM 51.4520 -2.4217 103° East 548 631 23,200 -837 Climbing FlightAware
Mon 04:26:50 AM 51.4435 -2.3280 103° East 474 545 21,400 -1,273 Descending FlightAware
Mon 04:26:59 AM 51.4404 -2.2950 103° East 536 617 22,500 -2,276 Climbing FlightAware
Mon 04:27:19 AM 51.4331 -2.2122 103° East 462 532 20,300 -1,742 Descending FlightAware
Mon 04:27:30 AM 51.4296 -2.1753 103° East 514 592 21,600 261 Climbing FlightAware
Mon 04:28:05 AM 51.4188 -2.0499 98° East 468 539 20,500 -3,720 Descending FlightAware
Mon 04:28:20 AM 51.4145 -1.9981 98° East 388 447 18,500 -3,091 Descending FlightAware
Mon 04:28:38 AM 51.4099 -1.9418 98° East 439 505 18,800 -3,667 Climbing FlightAware
Mon 04:28:56 AM 51.4049 -1.8828 98° East 374 430 16,300 -3,097 Descending FlightAware
Mon 04:29:09 AM 51.4013 -1.8439 98° East 422 486 17,200 -2,800 Climbing FlightAware
Mon 04:29:26 AM 51.3966 -1.7901 98° East 350 403 14,900 -2,000 Descending FlightAware
Mon 04:29:39 AM 51.3932 -1.7540 98° East 396 456 16,200 -1,600 Climbing FlightAware
Mon 04:29:56 AM 51.3891 -1.7041 98° East 322 371 14,100 -2,154 Descending FlightAware
Mon 04:30:18 AM 51.3840 -1.6462 98° East 368 423 14,800 -115 Climbing FlightAware
Mon 04:30:48 AM 51.3768 -1.5659 98° East 366 421 14,000 -3,360 Descending FlightAware
Mon 04:31:08 AM 51.3718 -1.5106 98° East 306 352 12,000 -1,355 Descending FlightAware
Mon 04:31:19 AM 51.3688 -1.4807 98° East 361 415 13,300 -1,200 Climbing FlightAware
Mon 04:31:38 AM 51.3639 -1.4308 98° East 302 348 11,400 -581 Descending FlightAware
Mon 04:31:50 AM 51.3611 -1.4028 98° East 346 398 13,000 2,233 Climbing FlightAware
Mon 04:32:21 AM 51.3540 -1.3280 99° East 324 373 13,000  Level FlightAware
Mon 04:32:51 AM 51.3470 -1.2569 99° East 324 373 13,000  Level FlightAware
Mon 04:33:20 AM 51.3402 -1.1885 99° East 323 372 13,000 -1,915 Level FlightAware
Mon 04:33:38 AM 51.3360 -1.1434 99° East 268 308 11,500  Descending FlightAware
Mon 04:33:52 AM 51.3330 -1.1127 99° East 325 374 13,000 1,909 Climbing FlightAware
Mon 04:34:22 AM 51.3261 -1.0416 99° East 326 375 12,900 -2,348 Descending FlightAware
Mon 04:34:38 AM 51.3224 -1.0006 99° East 270 311 11,200 -800 Descending FlightAware
Mon 04:34:52 AM 51.3193 -0.9704 99° East 323 372 12,500 1,200 Climbing FlightAware
Mon 04:35:23 AM 51.3127 -0.8981 98° East 317 365 12,100 -2,739 Descending FlightAware
Mon 04:35:38 AM 51.3093 -0.8602 98° East 268 308 10,400 -800 Descending FlightAware
Mon 04:35:53 AM 51.3064 -0.8288 98° East 314 361 11,700 -800 Climbing FlightAware
Mon 04:36:08 AM 51.3030 -0.7913 98° East 266 306 10,000 -800 Descending FlightAware
Mon 04:36:23 AM 51.2998 -0.7605 98° East 309 356 11,300 2,200 Climbing FlightAware
Mon 04:36:38 AM 51.2967 -0.7270 98° East 304 350 11,100 -818 Descending FlightAware
Mon 04:36:45 AM 51.2958 -0.7113 95° East 303 349 11,000 -429 Descending FlightAware
Mon 04:36:52 AM 51.2957 -0.6958 91° East 301 346 11,000  Level FlightAware
Mon 04:37:17 AM 51.2983 -0.6405 86° East 301 346 11,000 -327 Level FlightAware
Mon 04:37:47 AM 51.3010 -0.5737 86° East 302 348 10,700 -700 Descending FlightAware
Mon 04:38:17 AM 51.3038 -0.5073 86° East 300 345 10,300 -2,739 Descending FlightAware
Mon 04:38:33 AM 51.3052 -0.4704 86° East 256 295 8,600 -581 Descending FlightAware
Mon 04:38:48 AM 51.3067 -0.4392 86° East 297 342 10,000 3,111 Climbing FlightAware
Mon 04:39:00 AM 51.3070 -0.4130 89° East 295 339 10,000  Level FlightAware
Mon 04:39:07 AM 51.3046 -0.3983 105° East 293 337 10,000  Level FlightAware
Mon 04:39:11 AM 51.3021 -0.3905 117° Southeast 291 335 10,000  Level FlightAware
Mon 04:39:33 AM 51.2903 -0.3465 113° Southeast 296 341 10,000  Level FlightAware
Mon 04:39:41 AM 51.2864 -0.3302 111° Southeast 295 339 10,000 -222 Level FlightAware
Mon 04:40:00 AM 51.2780 -0.2911 109° East 295 339 9,900 -462 Descending FlightAware
Mon 04:40:20 AM 51.2692 -0.2502 109° East 288 331 9,700 -692 Descending FlightAware
Mon 04:40:26 AM 51.2649 -0.2393 122° Southeast 281 323 9,600 -667 Descending FlightAware
Mon 04:40:29 AM 51.2623 -0.2347 132° Southeast 278 320 9,600 -1,000 Level FlightAware
Mon 04:40:32 AM 51.2594 -0.2303 137° Southeast 274 315 9,500 -462 Descending FlightAware
Mon 04:40:42 AM 51.2494 -0.2193 145° Southeast 265 305 9,500 -300 Level FlightAware
Mon 04:40:52 AM 51.2384 -0.2128 160° South 253 291 9,400 -800 Descending FlightAware
Mon 04:40:57 AM 51.2327 -0.2116 172° South 247 284 9,300 -545 Descending FlightAware
Mon 04:41:03 AM 51.2259 -0.2117 181° South 239 275 9,300 -500 Level FlightAware
Mon 04:41:09 AM 51.2190 -0.2135 189° South 236 272 9,200 -600 Descending FlightAware
Mon 04:41:23 AM 51.2059 -0.2229 204° Southwest 223 257 9,100 -706 Descending FlightAware
Mon 04:41:26 AM 51.2031 -0.2258 213° Southwest 221 254 9,000 -667 Descending FlightAware
Mon 04:41:32 AM 51.1989 -0.2323 224° Southwest 217 250 9,000  Level FlightAware
Mon 04:41:39 AM 51.1948 -0.2409 233° Southwest 212 244 9,000  Level FlightAware
Mon 04:41:43 AM 51.1926 -0.2463 237° Southwest 211 243 9,000  Level FlightAware
Mon 04:41:51 AM 51.1892 -0.2576 244° Southwest 210 242 9,000  Level FlightAware
Mon 04:41:57 AM 51.1878 -0.2664 256° West 209 241 9,000  Level FlightAware
Mon 04:42:05 AM 51.1868 -0.2787 263° West 207 238 9,000  Level FlightAware
Mon 04:42:11 AM 51.1870 -0.2879 272° West 208 239 9,000  Level FlightAware
Mon 04:42:16 AM 51.1876 -0.2956 277° West 209 241 9,000  Level FlightAware
Mon 04:42:20 AM 51.1886 -0.3015 285° West 210 242 9,000  Level FlightAware
Mon 04:42:28 AM 51.1912 -0.3134 289° West 212 244 9,000  Level FlightAware
Mon 04:42:34 AM 51.1943 -0.3216 301° West 215 247 9,000  Level FlightAware
Mon 04:42:39 AM 51.1975 -0.3281 308° West 217 250 9,000  Level FlightAware
Mon 04:42:43 AM 51.2005 -0.3339 310° West 221 254 9,000  Level FlightAware
Mon 04:42:51 AM 51.2066 -0.3412 323° Northwest 226 260 9,000  Level FlightAware
Mon 04:42:56 AM 51.2109 -0.3458 326° Northwest 226 260 9,000  Level FlightAware
Mon 04:43:09 AM 51.2222 -0.3585 325° Northwest 226 260 9,000  Level FlightAware
Mon 04:43:24 AM 51.2353 -0.3728 326° Northwest 224 258 9,000  Level FlightAware
Mon 04:43:40 AM 51.2485 -0.3879 324° Northwest 225 259 9,000  Level FlightAware
Mon 04:43:55 AM 51.2612 -0.4021 325° Northwest 225 259 9,000  Level FlightAware
Mon 04:44:10 AM 51.2745 -0.4164 326° Northwest 225 259 9,000  Level FlightAware
Mon 04:44:25 AM 51.2874 -0.4317 324° Northwest 226 260 9,000  Level FlightAware
Mon 04:44:38 AM 51.2978 -0.4432 325° Northwest 223 257 9,000  Level FlightAware
Mon 04:44:53 AM 51.3108 -0.4572 326° Northwest 224 258 9,000  Level FlightAware
Mon 04:44:59 AM 51.3159 -0.4623 328° Northwest 230 265 9,000 -600 Level FlightAware
Mon 04:45:03 AM 51.3205 -0.4649 340° North 234 269 8,900 -600 Descending FlightAware
Mon 04:45:09 AM 51.3262 -0.4675 345° North 240 276 8,900  Level FlightAware
Mon 04:45:14 AM 51.3331 -0.4681 356° North 245 282 8,900 -667 Level FlightAware
Mon 04:45:18 AM 51.3371 -0.4680 North 248 285 8,800 -750 Descending FlightAware
Mon 04:45:22 AM 51.3414 -0.4671 North 252 290 8,800  Level FlightAware
Mon 04:45:26 AM 51.3463 -0.4654 12° North 255 293 8,800 -750 Level FlightAware
Mon 04:45:30 AM 51.3507 -0.4630 19° North 259 298 8,700 -667 Descending FlightAware
Mon 04:45:35 AM 51.3561 -0.4588 26° Northeast 265 305 8,700  Level FlightAware
Mon 04:45:38 AM 51.3594 -0.4557 31° Northeast 268 308 8,700 -750 Level FlightAware
Mon 04:45:43 AM 51.3640 -0.4496 40° Northeast 272 313 8,600 -667 Descending FlightAware
Mon 04:45:47 AM 51.3676 -0.4437 46° Northeast 276 318 8,600  Level FlightAware
Mon 04:45:51 AM 51.3712 -0.4373 48° Northeast 280 322 8,600 -545 Level FlightAware
Mon 04:45:58 AM 51.3757 -0.4246 60° Northeast 284 327 8,500 -545 Descending FlightAware
Mon 04:46:02 AM 51.3777 -0.4167 68° East 286 329 8,500 -750 Level FlightAware
Mon 04:46:06 AM 51.3790 -0.4085 76° East 287 330 8,400 -667 Descending FlightAware
Mon 04:46:11 AM 51.3797 -0.3979 84° East 286 329 8,400  Level FlightAware
Mon 04:46:14 AM 51.3797 -0.3916 90° East 287 330 8,400  Level FlightAware
Mon 04:46:17 AM 51.3793 -0.3851 96° East 286 329 8,400 -667 Level FlightAware
Mon 04:46:23 AM 51.3775 -0.3727 103° East 284 327 8,300 -667 Descending FlightAware
Mon 04:46:26 AM 51.3761 -0.3667 111° Southeast 282 325 8,300 -400 Level FlightAware
Mon 04:46:38 AM 51.3678 -0.3458 122° Southeast 276 318 8,200 -667 Descending FlightAware
Mon 04:46:44 AM 51.3620 -0.3375 138° Southeast 269 310 8,100 -375 Descending FlightAware
Mon 04:46:54 AM 51.3525 -0.3265 144° Southeast 264 304 8,100 -400 Level FlightAware
Mon 04:46:59 AM 51.3472 -0.3217 150° Southeast 262 302 8,000 -600 Descending FlightAware
Mon 04:47:04 AM 51.3407 -0.3173 157° South 255 293 8,000  Level FlightAware
Mon 04:47:09 AM 51.3355 -0.3158 170° South 247 284 8,000  Level FlightAware
Mon 04:47:16 AM 51.3278 -0.3155 179° South 239 275 8,000  Level FlightAware
Mon 04:47:19 AM 51.3241 -0.3160 185° South 236 272 8,000  Level FlightAware
Mon 04:47:24 AM 51.3187 -0.3179 192° South 232 267 8,000  Level FlightAware
Mon 04:47:30 AM 51.3129 -0.3205 195° South 228 262 8,000  Level FlightAware
Mon 04:47:37 AM 51.3066 -0.3256 207° Southwest 222 255 8,000  Level FlightAware
Mon 04:47:41 AM 51.3034 -0.3293 216° Southwest 219 252 8,000  Level FlightAware
Mon 04:47:44 AM 51.3007 -0.3323 215° Southwest 216 249 8,000  Level FlightAware
Mon 04:47:53 AM 51.2948 -0.3425 227° Southwest 210 242 8,000  Level FlightAware
Mon 04:48:01 AM 51.2908 -0.3528 238° Southwest 208 239 8,000  Level FlightAware
Mon 04:48:04 AM 51.2894 -0.3568 241° Southwest 207 238 8,000  Level FlightAware
Mon 04:48:11 AM 51.2871 -0.3670 250° West 206 237 8,000  Level FlightAware
Mon 04:48:17 AM 51.2860 -0.3759 259° West 204 235 8,000  Level FlightAware
Mon 04:48:22 AM 51.2856 -0.3834 265° West 204 235 8,000  Level FlightAware
Mon 04:48:26 AM 51.2856 -0.3894 270° West 203 234 8,000  Level FlightAware
Mon 04:48:32 AM 51.2861 -0.3984 275° West 204 235 8,000  Level FlightAware
Mon 04:48:36 AM 51.2872 -0.4058 283° West 205 236 8,000  Level FlightAware
Mon 04:48:40 AM 51.2883 -0.4102 292° West 206 237 8,000  Level FlightAware
Mon 04:48:45 AM 51.2902 -0.4173 293° West 207 238 8,000  Level FlightAware
Mon 04:48:50 AM 51.2925 -0.4239 299° West 209 241 8,000  Level FlightAware
Mon 04:48:55 AM 51.2955 -0.4302 307° West 211 243 8,000  Level FlightAware
Mon 04:48:59 AM 51.2980 -0.4349 311° West 212 244 8,000 -429 Level FlightAware
Mon 04:49:09 AM 51.3064 -0.4448 324° Northwest 222 255 7,900 -571 Descending FlightAware
Mon 04:49:20 AM 51.3176 -0.4498 344° North 235 270 7,800 -375 Descending FlightAware
Mon 04:49:25 AM 51.3230 -0.4496 North 242 278 7,800 -632 Level FlightAware
Mon 04:49:39 AM 51.3392 -0.4462 North 246 283 7,600 -818 Descending FlightAware
Mon 04:49:47 AM 51.3477 -0.4427 14° North 254 292 7,500 -462 Descending FlightAware
Mon 04:49:52 AM 51.3530 -0.4383 27° Northeast 260 299 7,500 -667 Level FlightAware
Mon 04:49:56 AM 51.3577 -0.4326 37° Northeast 263 303 7,400 -667 Descending FlightAware
Mon 04:50:01 AM 51.3615 -0.4269 43° Northeast 268 308 7,400  Level FlightAware
Mon 04:50:04 AM 51.3639 -0.4222 50° Northeast 271 312 7,400 -857 Level FlightAware
Mon 04:50:15 AM 51.3699 -0.4020 65° Northeast 275 316 7,200 -750 Descending FlightAware
Mon 04:50:20 AM 51.3713 -0.3921 77° East 273 314 7,200 -600 Level FlightAware
Mon 04:50:35 AM 51.3736 -0.3627 83° East 265 305 7,000 -375 Descending FlightAware
Mon 04:50:52 AM 51.3763 -0.3305 82° East 253 291 7,000 188 Level FlightAware
Mon 04:51:07 AM 51.3787 -0.3034 82° East 239 275 7,100  Climbing FlightAware
Mon 04:51:24 AM 51.3812 -0.2743 82° East 232 267 7,000 -182 Descending FlightAware
Mon 04:51:40 AM 51.3837 -0.2468 82° East 239 275 7,000 -375 Level FlightAware
Mon 04:51:56 AM 51.3864 -0.2188 81° East 236 272 6,800 -720 Descending FlightAware
Mon 04:52:05 AM 51.3878 -0.2032 82° East 237 273 6,700 -750 Descending FlightAware
Mon 04:52:20 AM 51.3901 -0.1771 82° East 237 273 6,500 -750 Descending FlightAware
Mon 04:52:37 AM 51.3926 -0.1476 82° East 235 270 6,300 -750 Descending FlightAware
Mon 04:52:52 AM 51.3946 -0.1220 83° East 231 266 6,100 -750 Descending FlightAware
Mon 04:53:09 AM 51.3967 -0.0935 83° East 227 261 5,900 -706 Descending FlightAware
Mon 04:53:26 AM 51.3988 -0.0658 83° East 216 249 5,700 -545 Descending FlightAware
Mon 04:53:42 AM 51.4012 -0.0411 81° East 213 245 5,600 -286 Descending FlightAware
Mon 04:53:47 AM 51.4036 -0.0340 62° Northeast 210 242 5,600  Level FlightAware
Mon 04:53:51 AM 51.4061 -0.0290 51° Northeast 210 242 5,600 -400 Level FlightAware
Mon 04:54:02 AM 51.4149 -0.0198 33° Northeast 197 227 5,500 -353 Descending FlightAware
Mon 04:54:08 AM 51.4200 -0.0180 13° North 187 215 5,500 -261 Level FlightAware
Mon 04:54:25 AM 51.4342 -0.0169 North 184 212 5,400 -375 Descending FlightAware
Mon 04:54:40 AM 51.4472 -0.0157 North 183 211 5,300 -375 Descending FlightAware
Mon 04:54:57 AM 51.4614 -0.0155 North 181 208 5,200 -300 Descending FlightAware
Mon 04:55:00 AM 51.4642 -0.0166 346° North 177 204 5,200  Level FlightAware
Mon 04:55:05 AM 51.4677 -0.0204 326° Northwest 169 194 5,200  Level FlightAware
Mon 04:55:09 AM 51.4696 -0.0231 318° Northwest 166 191 5,200 -750 Level FlightAware
Mon 04:55:13 AM 51.4713 -0.0274 303° West 165 190 5,100 -500 Descending FlightAware
Mon 04:55:21 AM 51.4720 -0.0370 277° West 164 189 5,100  Level FlightAware
Mon 04:55:29 AM 51.4704 -0.0468 255° West 166 191 5,100 -500 Level FlightAware
Mon 04:55:45 AM 51.4672 -0.0658 255° West 162 186 4,900 -1,000 Descending FlightAware
Mon 04:55:53 AM 51.4664 -0.0753 262° West 165 190 4,700 -1,304 Descending FlightAware
Mon 04:56:08 AM 51.4653 -0.0950 265° West 165 190 4,400 -1,111 Descending FlightAware
Mon 04:56:20 AM 51.4650 -0.1079 268° West 155 178 4,200 -818 Descending FlightAware
Mon 04:56:30 AM 51.4651 -0.1189 271° West 146 168 4,100 -720 Descending FlightAware
Mon 04:56:45 AM 51.4654 -0.1348 272° West 141 162 3,900 -800 Descending FlightAware
Mon 04:57:00 AM 51.4655 -0.1505 271° West 140 161 3,700 -774 Descending FlightAware
Mon 04:57:16 AM 51.4654 -0.1671 269° West 142 163 3,500 -882 Descending FlightAware
Mon 04:57:34 AM 51.4654 -0.1861 270° West 142 163 3,200 -833 Descending FlightAware
Mon 04:57:52 AM 51.4654 -0.2051 270° West 145 167 3,000 -789 Descending FlightAware
Mon 04:58:12 AM 51.4653 -0.2266 270° West 145 167 2,700 -764 Descending FlightAware
Mon 04:58:47 AM 51.4650 -0.2570 269° West 149 171 2,300 -837 Descending FlightAware
Mon 04:58:55 AM 51.4653 -0.2740 272° West 148 170 2,100 -3,300 Descending FlightAware
Mon 04:59:27 AM 51.4653 -0.3106 272° West 172 198 100 -766 Descending FlightAware
Mon 04:59:42 AM 51.4650 -0.3210 272° West 133 153 1,500 1,733 Climbing FlightAware
Mon 05:00:12 AM 51.4650 -0.3330 270° West 127 146 1,400 -720 Descending FlightAware
Mon 05:00:32 AM 51.4650 -0.3700 270° West 127 146 900 -720 Descending FlightAware
Mon 05:01:02 AM 51.4650 -0.3770 270° West 132 152 800 -360 Descending FlightAware
Mon 05:01:22 AM 51.4650 -0.4000 270° West 123 142 600 -764 Descending FlightAware
Mon 05:01:57 AM 51.4650 -0.4210 270° West 127 146 100 -500 Descending FlightAware
Mon 05:02:22 AM 51.4650 -0.4440 270° West 127 146 100  Level FlightAware
Mon 05:03:52 AM 51.4650 -0.4210 90° East 127 146 100  Level FlightAware

Login

Don't have an account? Register now (free) for customized features, flight alerts, and more!